createdAt,value
2019-03-05T00:01:28.638Z,99101.17
2019-03-05T00:04:03.515Z,99104.42
2019-03-05T00:06:36.969Z,99110.77
2019-03-05T00:09:11.545Z,99112.55
2019-03-05T00:11:44.875Z,99113.61
2019-03-05T00:14:18.953Z,99109.27
2019-03-05T00:16:54.010Z,99109.34
2019-03-05T00:19:29.096Z,99105.25
2019-03-05T00:22:02.325Z,99109.48
2019-03-05T00:25:00.647Z,99112.91
2019-03-05T00:27:35.519Z,99109.93
2019-03-05T00:30:43.057Z,99111.23
2019-03-05T00:33:25.482Z,99113.00
2019-03-05T00:36:25.595Z,99115.11
2019-03-05T00:39:25.410Z,99114.97
2019-03-05T00:42:34.111Z,99113.99
2019-03-05T00:45:33.714Z,99114.01
2019-03-05T00:48:28.996Z,99117.19
2019-03-05T00:51:25.039Z,99122.96
2019-03-05T00:54:07.569Z,99119.23
2019-03-05T00:56:49.272Z,99121.83
2019-03-05T00:59:47.598Z,99117.44
2019-03-05T01:02:46.000Z,99124.96
2019-03-05T01:05:22.270Z,99123.98
2019-03-05T01:07:56.083Z,99122.27
2019-03-05T01:10:29.482Z,99124.09
2019-03-05T01:13:03.182Z,99122.44
2019-03-05T01:15:36.531Z,99125.14
2019-03-05T01:18:10.048Z,99117.11
2019-03-05T01:20:43.319Z,99122.59
2019-03-05T01:23:16.758Z,99122.61
2019-03-05T01:25:50.346Z,99116.75
2019-03-05T01:28:23.835Z,99118.59
2019-03-05T01:30:57.045Z,99122.13
2019-03-05T01:33:30.668Z,99121.30
2019-03-05T01:36:03.972Z,99111.48
2019-03-05T01:38:37.147Z,99108.59
2019-03-05T01:41:10.486Z,99117.17
2019-03-05T01:43:43.973Z,99117.39
2019-03-05T01:46:17.383Z,99113.56
2019-03-05T01:48:52.168Z,99112.03
2019-03-05T01:51:25.462Z,99111.02
2019-03-05T01:53:58.712Z,99108.00
2019-03-05T01:56:32.092Z,99106.84
2019-03-05T01:59:06.087Z,99110.94
2019-03-05T02:01:39.409Z,99109.05
2019-03-05T02:04:13.193Z,99108.30
2019-03-05T02:06:46.954Z,99109.90
2019-03-05T02:09:20.308Z,99114.72
2019-03-05T02:11:53.776Z,99111.46
2019-03-05T02:14:27.273Z,99105.74
2019-03-05T02:17:01.889Z,99111.44
2019-03-05T02:19:44.867Z,99107.11
2019-03-05T02:22:23.900Z,99110.98
2019-03-05T02:25:23.664Z,99100.88
2019-03-05T02:28:28.273Z,99101.14
2019-03-05T02:31:51.006Z,99110.37
2019-03-05T02:34:29.906Z,99099.28
2019-03-05T02:37:24.599Z,99105.83
2019-03-05T02:40:12.546Z,99097.58
2019-03-05T02:43:01.524Z,99101.03
2019-03-05T02:45:56.625Z,99096.20
2019-03-05T02:48:52.044Z,99092.52
2019-03-05T02:51:35.168Z,99087.30
2019-03-05T02:54:28.957Z,99091.46
2019-03-05T02:57:09.925Z,99092.17
2019-03-05T02:59:43.450Z,99083.25
2019-03-05T03:02:17.301Z,99075.02
2019-03-05T03:04:50.847Z,99085.00
2019-03-05T03:07:24.357Z,99076.23
2019-03-05T03:10:12.040Z,99073.79
2019-03-05T03:12:45.576Z,99075.62
2019-03-05T03:15:19.027Z,99073.14
2019-03-05T03:17:53.008Z,99071.33
2019-03-05T03:20:26.919Z,99062.45
2019-03-05T03:23:01.293Z,99067.86
2019-03-05T03:25:36.418Z,99071.26
2019-03-05T03:28:10.006Z,99070.64
2019-03-05T03:30:43.483Z,99062.45
2019-03-05T03:33:16.905Z,99067.76
2019-03-05T03:35:50.211Z,99068.61
2019-03-05T03:38:23.515Z,99062.17
2019-03-05T03:40:57.091Z,99061.93
2019-03-05T03:43:30.354Z,99053.63
2019-03-05T03:46:03.708Z,99048.45
2019-03-05T03:48:38.418Z,99049.79
2019-03-05T03:51:11.899Z,99049.61
2019-03-05T03:53:45.169Z,99044.19
2019-03-05T03:56:19.024Z,99048.91
2019-03-05T03:58:52.308Z,99039.36
2019-03-05T04:01:25.648Z,99035.94
2019-03-05T04:03:59.453Z,99043.47
2019-03-05T04:06:33.342Z,99035.08
2019-03-05T04:09:11.120Z,99031.89
2019-03-05T04:11:44.692Z,99023.55
2019-03-05T04:14:17.940Z,99025.42
2019-03-05T04:16:51.212Z,99024.44
2019-03-05T04:19:24.867Z,99025.87
2019-03-05T04:21:58.186Z,99025.84
2019-03-05T04:24:31.431Z,99011.51
2019-03-05T04:27:04.722Z,99017.40
2019-03-05T04:29:39.431Z,99010.27
2019-03-05T04:32:13.992Z,99002.21
2019-03-05T04:34:47.776Z,99005.78
2019-03-05T04:37:21.099Z,99005.05
2019-03-05T04:39:54.373Z,98989.94
2019-03-05T04:42:27.684Z,98996.66
2019-03-05T04:45:00.972Z,98990.02
2019-03-05T04:47:35.625Z,98995.00
2019-03-05T04:50:09.998Z,98992.16
2019-03-05T04:52:43.273Z,98989.88
2019-03-05T04:55:16.550Z,98990.50
2019-03-05T04:57:50.003Z,98974.20
2019-03-05T05:00:23.421Z,98965.46
2019-03-05T05:02:58.329Z,98971.06
2019-03-05T05:05:31.365Z,98965.84
2019-03-05T05:08:04.607Z,98974.38
2019-03-05T05:10:41.676Z,98971.27
2019-03-05T05:13:17.826Z,98960.83
2019-03-05T05:15:53.122Z,98957.19
2019-03-05T05:18:27.295Z,98959.46
2019-03-05T05:21:01.428Z,98953.23
2019-03-05T05:23:38.675Z,98950.77
2019-03-05T05:26:12.950Z,98948.73
2019-03-05T05:28:47.722Z,98943.43
2019-03-05T05:31:21.328Z,98943.82
2019-03-05T05:33:54.591Z,98943.00
2019-03-05T05:36:28.002Z,98937.82
2019-03-05T05:39:02.710Z,98935.51
2019-03-05T05:41:36.004Z,98935.00
2019-03-05T05:44:09.293Z,98940.77
2019-03-05T05:46:42.523Z,98931.77
2019-03-05T05:49:15.825Z,98936.39
2019-03-05T05:51:50.481Z,98929.08
2019-03-05T05:54:23.741Z,98933.28
2019-03-05T05:56:59.320Z,98928.27
2019-03-05T05:59:32.668Z,98932.17
2019-03-05T06:02:06.181Z,98928.44
2019-03-05T06:04:41.881Z,98930.96
2019-03-05T06:07:14.909Z,98927.37
2019-03-05T06:09:48.214Z,98940.65
2019-03-05T06:12:21.430Z,98932.09
2019-03-05T06:14:56.588Z,98936.63
2019-03-05T06:17:29.949Z,98947.83
2019-03-05T06:20:03.373Z,98937.62
2019-03-05T06:22:36.657Z,98938.27
2019-03-05T06:25:12.808Z,98924.01
2019-03-05T06:27:46.233Z,98919.19
2019-03-05T06:30:21.368Z,98922.56
2019-03-05T06:32:54.684Z,98920.77
2019-03-05T06:35:28.192Z,98915.27
2019-03-05T06:38:01.514Z,98918.73
2019-03-05T06:40:35.342Z,98920.44
2019-03-05T06:43:08.933Z,98911.84
2019-03-05T06:45:44.703Z,98903.47
2019-03-05T06:48:18.071Z,98905.66
2019-03-05T06:50:51.438Z,98901.45
2019-03-05T06:53:24.771Z,98905.95
2019-03-05T06:55:58.066Z,98908.30
2019-03-05T06:58:31.424Z,98908.86
2019-03-05T07:01:04.827Z,98905.19
2019-03-05T07:03:38.228Z,98915.91
2019-03-05T07:06:42.512Z,98909.59
2019-03-05T07:09:51.357Z,98907.56
2019-03-05T07:12:33.478Z,98911.25
2019-03-05T07:15:28.127Z,98913.06
2019-03-05T07:18:24.993Z,98913.73
2019-03-05T07:21:22.884Z,98919.88
2019-03-05T07:24:22.478Z,98908.78
2019-03-05T07:26:56.070Z,98914.59
2019-03-05T07:29:29.313Z,98921.10
2019-03-05T07:32:02.832Z,98917.14
2019-03-05T07:34:36.445Z,98923.13
2019-03-05T07:37:12.399Z,98921.03
2019-03-05T07:39:48.386Z,98928.34
2019-03-05T07:42:21.801Z,98925.75
2019-03-05T07:44:56.357Z,98926.19
2019-03-05T07:47:29.917Z,98930.44
2019-03-05T07:50:03.461Z,98928.75
2019-03-05T07:52:36.861Z,98929.40
2019-03-05T07:55:16.507Z,98929.62
2019-03-05T07:57:49.947Z,98926.14
2019-03-05T08:00:24.902Z,98935.23
2019-03-05T08:02:58.284Z,98924.55
2019-03-05T08:05:31.829Z,98927.61
2019-03-05T08:08:56.614Z,98929.27
2019-03-05T08:11:31.966Z,98926.95
2019-03-05T08:14:30.147Z,98931.58
2019-03-05T08:17:03.553Z,98933.56
2019-03-05T08:19:38.291Z,98937.38
2019-03-05T08:22:12.744Z,98930.13
2019-03-05T08:24:47.712Z,98939.66
2019-03-05T08:27:21.259Z,98938.02
2019-03-05T08:29:54.573Z,98945.12
2019-03-05T08:32:28.529Z,98948.46
2019-03-05T08:35:01.966Z,98954.16
2019-03-05T08:37:36.386Z,98955.09
2019-03-05T08:40:18.246Z,98959.19
2019-03-05T08:42:51.467Z,98975.52
2019-03-05T08:45:29.427Z,98951.09
2019-03-05T08:48:00.477Z,98955.17
2019-03-05T08:50:35.410Z,98954.93
2019-03-05T08:53:08.947Z,98959.21
2019-03-05T08:55:43.348Z,98964.59
2019-03-05T08:58:16.892Z,98978.16
2019-03-05T09:00:50.271Z,98974.45
2019-03-05T09:03:24.426Z,98976.73
2019-03-05T09:05:58.165Z,98979.95
2019-03-05T09:08:32.187Z,98987.74
2019-03-05T09:11:05.674Z,98983.94
2019-03-05T09:13:39.405Z,98994.33
2019-03-05T09:16:13.407Z,98988.86
2019-03-05T09:18:46.914Z,98989.68
2019-03-05T09:21:22.070Z,98993.56
2019-03-05T09:23:55.385Z,99001.28
2019-03-05T09:26:30.170Z,99011.13
2019-03-05T09:29:04.306Z,99011.75
2019-03-05T09:31:37.743Z,99013.51
2019-03-05T09:34:11.957Z,99014.67
2019-03-05T09:36:50.995Z,99017.47
2019-03-05T09:39:20.433Z,99028.67
2019-03-05T09:41:54.170Z,99027.84
2019-03-05T09:44:29.029Z,99037.47
2019-03-05T09:47:02.528Z,99042.38
2019-03-05T09:49:37.407Z,99049.21
2019-03-05T09:52:10.996Z,99056.67
2019-03-05T09:54:44.495Z,99070.20
2019-03-05T09:57:20.410Z,99102.36
2019-03-05T09:59:54.125Z,99084.75
2019-03-05T10:02:27.840Z,99082.62
2019-03-05T10:05:01.773Z,99094.33
2019-03-05T10:07:35.819Z,99094.83
2019-03-05T10:10:15.108Z,99104.14
2019-03-05T10:12:49.292Z,99117.27
2019-03-05T10:15:26.266Z,99121.11
2019-03-05T10:18:12.346Z,99135.26
2019-03-05T10:20:42.271Z,99142.91
2019-03-05T10:23:16.277Z,99139.34
2019-03-05T10:25:51.062Z,99138.52
2019-03-05T10:28:24.526Z,99141.80
2019-03-05T10:30:58.960Z,99149.14
2019-03-05T10:33:35.604Z,99152.66
2019-03-05T10:36:10.244Z,99165.19
2019-03-05T10:38:44.391Z,99153.77
2019-03-05T10:41:20.316Z,99161.91
2019-03-05T10:43:54.862Z,99164.61
2019-03-05T10:46:29.268Z,99158.38
2019-03-05T10:49:03.322Z,99168.69
2019-03-05T10:51:38.789Z,99180.13
2019-03-05T10:54:13.850Z,99182.56
2019-03-05T10:56:48.144Z,99176.30
2019-03-05T10:59:22.072Z,99189.61
2019-03-05T11:01:58.175Z,99192.89
2019-03-05T11:04:33.883Z,99197.49
2019-03-05T11:07:09.629Z,99205.67
2019-03-05T11:09:45.059Z,99203.50
2019-03-05T11:12:19.931Z,99205.93
2019-03-05T11:14:57.496Z,99202.08
2019-03-05T11:17:33.231Z,99205.89
2019-03-05T11:20:11.475Z,99203.38
2019-03-05T11:22:48.694Z,99206.71
2019-03-05T11:25:27.680Z,99206.38
2019-03-05T11:28:03.997Z,99212.02
2019-03-05T11:30:40.599Z,99207.70
2019-03-05T11:33:16.669Z,99206.66
2019-03-05T11:35:52.480Z,99212.55
2019-03-05T11:38:29.077Z,99217.63
2019-03-05T11:41:07.724Z,99217.07
2019-03-05T11:43:42.165Z,99220.56
2019-03-05T11:46:18.716Z,99224.21
2019-03-05T11:48:53.329Z,99222.55
2019-03-05T11:51:28.793Z,99220.94
2019-03-05T11:54:09.351Z,99220.70
2019-03-05T11:56:45.117Z,99226.67
2019-03-05T11:59:20.997Z,99232.06
2019-03-05T12:01:56.074Z,99228.32
2019-03-05T12:04:33.692Z,99232.42
2019-03-05T12:07:08.696Z,99238.41
2019-03-05T12:09:43.688Z,99235.96
2019-03-05T12:12:21.050Z,99244.61
2019-03-05T12:14:56.170Z,99250.84
2019-03-05T12:17:32.149Z,99257.84
2019-03-05T12:20:09.991Z,99257.02
2019-03-05T12:22:45.154Z,99254.56
2019-03-05T12:25:24.731Z,99267.04
2019-03-05T12:28:10.412Z,99267.84
2019-03-05T12:30:41.485Z,99272.95
2019-03-05T12:33:18.413Z,99273.47
2019-03-05T12:35:56.736Z,99280.41
2019-03-05T12:38:31.779Z,99285.84
2019-03-05T12:41:07.079Z,99291.49
2019-03-05T12:43:42.426Z,99291.10
2019-03-05T12:46:23.040Z,99297.64
2019-03-05T12:49:00.662Z,99295.07
2019-03-05T12:51:39.162Z,99299.06
2019-03-05T12:54:16.631Z,99300.91
2019-03-05T12:56:51.835Z,99303.25
2019-03-05T12:59:29.564Z,99311.93
2019-03-05T13:02:06.694Z,99314.27
2019-03-05T13:04:44.192Z,99313.65
2019-03-05T13:07:19.292Z,99315.48
2019-03-05T13:09:56.934Z,99323.19
2019-03-05T13:12:35.849Z,99315.05
2019-03-05T13:15:09.696Z,99319.07
2019-03-05T13:17:47.152Z,99324.20
2019-03-05T13:20:22.599Z,99322.08
2019-03-05T13:23:05.051Z,99325.30
2019-03-05T13:25:40.668Z,99327.18
2019-03-05T13:28:15.324Z,99326.60
2019-03-05T13:30:50.871Z,99332.09
2019-03-05T13:33:29.383Z,99321.67
2019-03-05T13:36:05.130Z,99333.87
2019-03-05T13:38:45.235Z,99347.77
2019-03-05T13:41:19.620Z,99346.58
2019-03-05T13:43:56.630Z,99345.63
2019-03-05T13:46:36.704Z,99348.69
2019-03-05T13:49:22.763Z,99346.82
2019-03-05T13:52:41.723Z,99349.41
2019-03-05T13:55:28.043Z,99348.14
2019-03-05T13:58:17.107Z,99353.72
2019-03-05T14:00:52.638Z,99364.97
2019-03-05T14:03:33.077Z,99352.84
2019-03-05T14:06:36.511Z,99355.87
2019-03-05T14:09:24.266Z,99360.95
2019-03-05T14:11:59.271Z,99356.61
2019-03-05T14:14:34.350Z,99359.26
2019-03-05T14:17:09.113Z,99354.44
2019-03-05T14:19:45.517Z,99361.20
2019-03-05T14:22:21.781Z,99358.93
2019-03-05T14:25:02.018Z,99369.87
2019-03-05T14:27:31.649Z,99368.81
2019-03-05T14:30:07.269Z,99377.45
2019-03-05T14:32:41.471Z,99368.26
2019-03-05T14:35:16.772Z,99364.86
2019-03-05T14:37:51.170Z,99368.92
2019-03-05T14:40:30.575Z,99362.76
2019-03-05T14:43:06.187Z,99362.76
2019-03-05T14:45:40.583Z,99363.45
2019-03-05T14:48:14.644Z,99365.03
2019-03-05T14:50:48.665Z,99366.38
2019-03-05T14:53:22.618Z,99363.09
2019-03-05T14:55:56.273Z,99373.84
2019-03-05T14:58:30.355Z,99370.13
2019-03-05T15:01:04.974Z,99367.25
2019-03-05T15:03:39.615Z,99364.97
2019-03-05T15:06:14.017Z,99373.71
2019-03-05T15:08:47.994Z,99372.13
2019-03-05T15:11:22.820Z,99366.21
2019-03-05T15:13:57.085Z,99367.78
2019-03-05T15:16:31.534Z,99375.01
2019-03-05T15:19:05.733Z,99373.77
2019-03-05T15:21:39.949Z,99372.41
2019-03-05T15:24:15.624Z,99371.34
2019-03-05T15:26:50.063Z,99379.64
2019-03-05T15:29:23.854Z,99373.42
2019-03-05T15:31:58.009Z,99378.44
2019-03-05T15:34:32.056Z,99369.39
2019-03-05T15:37:05.573Z,99369.98
2019-03-05T15:39:38.894Z,99371.16
2019-03-05T15:42:14.334Z,99374.53
2019-03-05T15:44:49.019Z,99373.88
2019-03-05T15:47:22.556Z,99383.31
2019-03-05T15:49:56.012Z,99387.71
2019-03-05T15:52:29.643Z,99388.57
2019-03-05T15:55:03.025Z,99389.01
2019-03-05T15:57:36.424Z,99387.22
2019-03-05T16:00:27.037Z,99394.73
2019-03-05T16:03:00.617Z,99393.52
2019-03-05T16:05:33.935Z,99392.02
2019-03-05T16:08:08.951Z,99389.92
2019-03-05T16:10:42.512Z,99397.88
2019-03-05T16:13:19.336Z,99390.08
2019-03-05T16:19:19.187Z,99404.30
2019-03-05T16:21:53.891Z,99407.95
2019-03-05T16:24:28.908Z,99404.70
2019-03-05T16:27:02.685Z,99410.17
2019-03-05T16:29:36.004Z,99417.42
2019-03-05T16:32:09.467Z,99421.95
2019-03-05T16:34:45.900Z,99420.00
2019-03-05T16:37:17.404Z,99416.74
2019-03-05T16:39:50.584Z,99415.18
2019-03-05T16:42:24.005Z,99429.52
2019-03-05T16:44:57.326Z,99416.80
2019-03-05T16:47:30.572Z,99421.51
2019-03-05T16:50:04.009Z,99421.77
2019-03-05T16:52:37.264Z,99430.20
2019-03-05T16:55:12.619Z,99430.70
2019-03-05T16:57:46.289Z,99430.29
2019-03-05T17:00:20.060Z,99429.67
2019-03-05T17:02:53.432Z,99432.97
2019-03-05T17:05:27.272Z,99436.75
2019-03-05T17:08:01.737Z,99428.59
2019-03-05T17:10:36.334Z,99436.66
2019-03-05T17:13:09.789Z,99436.08
2019-03-05T17:15:42.988Z,99443.72
2019-03-05T17:18:16.440Z,99442.83
2019-03-05T17:20:49.703Z,99444.69
2019-03-05T17:23:23.140Z,99454.06
2019-03-05T17:25:56.435Z,99448.48
2019-03-05T17:28:29.711Z,99446.06
2019-03-05T17:31:03.153Z,99450.36
2019-03-05T17:33:36.344Z,99442.95
2019-03-05T17:36:10.523Z,99448.14
2019-03-05T17:38:43.839Z,99451.42
2019-03-05T17:41:17.267Z,99449.60
2019-03-05T17:43:50.512Z,99447.74
2019-03-05T17:46:23.909Z,99444.06
2019-03-05T17:48:57.213Z,99445.00
2019-03-05T17:51:31.040Z,99453.08
2019-03-05T17:54:05.129Z,99442.98
2019-03-05T17:56:38.459Z,99447.00
2019-03-05T17:59:12.017Z,99455.04
2019-03-05T18:01:45.314Z,99454.65
2019-03-05T18:04:18.895Z,99456.83
2019-03-05T18:06:52.234Z,99441.99
2019-03-05T18:09:25.862Z,99450.47
2019-03-05T18:11:59.842Z,99455.09
2019-03-05T18:14:33.087Z,99451.08
2019-03-05T18:17:07.333Z,99459.95
2019-03-05T18:19:40.595Z,99464.41
2019-03-05T18:22:13.822Z,99460.06
2019-03-05T18:24:47.098Z,99457.47
2019-03-05T18:27:20.409Z,99458.09
2019-03-05T18:29:53.626Z,99455.92
2019-03-05T18:32:26.868Z,99450.36
2019-03-05T18:35:00.322Z,99459.11
2019-03-05T18:37:33.811Z,99454.77
2019-03-05T18:40:09.078Z,99452.09
2019-03-05T18:42:42.344Z,99461.16
2019-03-05T18:45:24.726Z,99458.08
2019-03-05T18:47:58.252Z,99462.27
2019-03-05T18:50:31.931Z,99464.44
2019-03-05T18:53:06.670Z,99468.88
2019-03-05T18:55:40.582Z,99464.55
2019-03-05T18:58:13.988Z,99467.12
2019-03-05T19:00:47.423Z,99475.53
2019-03-05T19:03:23.955Z,99474.44
2019-03-05T19:05:57.329Z,99476.66
2019-03-05T19:08:30.641Z,99477.89
2019-03-05T19:11:03.885Z,99478.47
2019-03-05T19:13:37.675Z,99481.66
2019-03-05T19:16:11.059Z,99488.31
2019-03-05T19:18:45.699Z,99492.88
2019-03-05T19:21:19.174Z,99488.63
2019-03-05T19:23:52.491Z,99485.44
2019-03-05T19:26:26.060Z,99487.71
2019-03-05T19:28:59.310Z,99490.12
2019-03-05T19:31:32.788Z,99494.55
2019-03-05T19:34:06.228Z,99493.20
2019-03-05T19:36:39.658Z,99501.95
2019-03-05T19:39:14.875Z,99498.27
2019-03-05T19:41:55.890Z,99500.37
2019-03-05T19:44:22.865Z,99498.25
2019-03-05T19:46:56.040Z,99510.41
2019-03-05T19:49:29.531Z,99506.75
2019-03-05T19:52:02.905Z,99514.95
2019-03-05T19:54:36.135Z,99521.14
2019-03-05T19:57:09.393Z,99519.92
2019-03-05T19:59:42.634Z,99523.09
2019-03-05T20:02:15.957Z,99529.69
2019-03-05T20:04:49.334Z,99535.63
2019-03-05T20:07:22.700Z,99532.47
2019-03-05T20:09:56.215Z,99535.08
2019-03-05T20:12:31.346Z,99539.64
2019-03-05T20:15:04.701Z,99547.70
2019-03-05T20:17:38.429Z,99546.02
2019-03-05T20:20:13.324Z,99554.08
2019-03-05T20:22:47.519Z,99550.16
2019-03-05T20:25:25.116Z,99553.59
2019-03-05T20:27:58.660Z,99551.23
2019-03-05T20:30:32.108Z,99562.64
2019-03-05T20:33:05.351Z,99558.47
2019-03-05T20:35:38.548Z,99560.83
2019-03-05T20:38:12.156Z,99565.48
2019-03-05T20:40:45.449Z,99565.09
2019-03-05T20:43:19.131Z,99573.39
2019-03-05T20:46:07.342Z,99573.16
2019-03-05T20:48:40.650Z,99578.93
2019-03-05T20:51:13.970Z,99578.05
2019-03-05T20:53:47.294Z,99582.53
2019-03-05T20:56:20.543Z,99580.92
2019-03-05T20:58:54.597Z,99580.03
2019-03-05T21:04:10.211Z,99592.03
2019-03-05T21:06:43.536Z,99584.05
2019-03-05T21:09:25.366Z,99586.92
2019-03-05T21:11:58.689Z,99590.29
2019-03-05T21:14:34.828Z,99591.95
2019-03-05T21:17:06.546Z,99592.86
2019-03-05T21:19:39.887Z,99603.52
2019-03-05T21:22:13.446Z,99602.06
2019-03-05T21:24:47.321Z,99603.96
2019-03-05T21:27:20.941Z,99605.09
2019-03-05T21:29:55.763Z,99611.22
2019-03-05T21:32:29.011Z,99616.33
2019-03-05T21:35:02.392Z,99621.50
2019-03-05T21:37:35.713Z,99621.50
2019-03-05T21:40:31.607Z,99636.45
2019-03-05T21:43:05.192Z,99633.08
2019-03-05T21:45:50.057Z,99631.94
2019-03-05T21:48:25.135Z,99632.75
2019-03-05T21:51:00.314Z,99639.58
2019-03-05T21:53:33.879Z,99642.63
2019-03-05T21:56:07.282Z,99648.73
2019-03-05T21:58:40.624Z,99645.85
2019-03-05T22:01:14.273Z,99642.02
2019-03-05T22:03:47.875Z,99652.28
2019-03-05T22:06:21.494Z,99647.97
2019-03-05T22:08:55.785Z,99656.76
2019-03-05T22:11:29.058Z,99657.37
2019-03-05T22:14:02.709Z,99661.45
2019-03-05T22:16:35.957Z,99662.25
2019-03-05T22:19:10.347Z,99662.40
2019-03-05T22:21:44.270Z,99666.95
2019-03-05T22:24:17.837Z,99668.33
2019-03-05T22:26:51.141Z,99672.98
2019-03-05T22:29:24.758Z,99681.18
2019-03-05T22:31:59.740Z,99690.22
2019-03-05T22:34:33.046Z,99689.75
2019-03-05T22:37:06.599Z,99694.59
2019-03-05T22:39:40.018Z,99700.45
2019-03-05T22:42:13.660Z,99696.83
2019-03-05T22:44:47.031Z,99704.09
2019-03-05T22:47:23.540Z,99707.03
2019-03-05T22:49:56.821Z,99709.44
2019-03-05T22:52:30.162Z,99712.94
2019-03-05T22:55:03.353Z,99717.19
2019-03-05T22:57:39.002Z,99721.34
2019-03-05T23:00:27.220Z,99724.19
2019-03-05T23:03:00.717Z,99725.97
2019-03-05T23:05:36.466Z,99729.06
2019-03-05T23:08:10.411Z,99731.86
2019-03-05T23:10:44.161Z,99732.04
2019-03-05T23:13:19.222Z,99740.16
2019-03-05T23:15:54.950Z,99731.20
2019-03-05T23:18:31.228Z,99738.97
2019-03-05T23:21:04.625Z,99745.19
2019-03-05T23:23:39.050Z,99738.88
2019-03-05T23:26:13.246Z,99756.85
2019-03-05T23:28:46.495Z,99755.63
2019-03-05T23:31:19.883Z,99760.69
2019-03-05T23:33:53.507Z,99762.64
2019-03-05T23:36:27.061Z,99769.77
2019-03-05T23:39:00.435Z,99775.14
2019-03-05T23:41:33.971Z,99767.74
2019-03-05T23:44:10.255Z,99776.52
2019-03-05T23:46:45.282Z,99784.52
2019-03-05T23:49:19.568Z,99793.17
2019-03-05T23:51:52.946Z,99791.24
2019-03-05T23:54:33.444Z,99794.02
2019-03-05T23:57:07.138Z,99803.25
2019-03-05T23:59:40.509Z,99806.65
